Time;durP1;ratioP1;P1;durP2;ratioP2;P2;SDS_P1;SDS_P2;PMS_P1;PMS_P2;Temp;Humidity;BMP_temperature;BMP_pressure;BME280_temperature;BME280_humidity;BME280_pressure;Samples;Min_cycle;Max_cycle;Signal;HPM_P1;HPM_P2
2022/03/19 00:01:59;;;;;;;8.80;5.55;;;8.10;99.90;;;;;;5023532;28;20053;-59
2022/03/19 00:04:26;;;;;;;10.07;5.68;;;8.10;99.90;;;;;;5012263;28;20940;-59
2022/03/19 00:06:53;;;;;;;14.07;6.30;;;8.10;99.90;;;;;;5016262;28;20431;-58
2022/03/19 00:09:19;;;;;;;9.35;5.78;;;8.10;99.90;;;;;;5023199;28;20136;-59
2022/03/19 00:11:47;;;;;;;10.40;5.85;;;8.10;99.90;;;;;;5022378;28;20422;-58
2022/03/19 00:14:14;;;;;;;14.30;7.25;;;8.10;99.90;;;;;;5022079;28;20081;-58
2022/03/19 00:16:42;;;;;;;8.80;6.28;;;8.10;99.90;;;;;;5022041;28;20042;-59
2022/03/19 00:19:09;;;;;;;10.60;5.72;;;8.00;99.90;;;;;;5022049;28;20075;-57
2022/03/19 00:21:39;;;;;;;9.23;5.72;;;8.00;99.90;;;;;;5021283;28;20042;-58
2022/03/19 00:24:06;;;;;;;11.38;6.25;;;8.00;99.90;;;;;;5005561;28;20049;-58
2022/03/19 00:26:33;;;;;;;11.45;5.72;;;8.00;99.90;;;;;;5023101;28;20045;-58
2022/03/19 00:29:00;;;;;;;9.55;5.93;;;8.00;99.90;;;;;;5023557;28;20432;-58
2022/03/19 00:31:28;;;;;;;7.28;4.72;;;8.00;99.90;;;;;;5023054;28;20092;-58
2022/03/19 00:33:55;;;;;;;14.15;5.32;;;8.00;99.90;;;;;;5022503;28;20092;-58
2022/03/19 00:36:22;;;;;;;7.68;5.28;;;8.00;99.90;;;;;;5021500;28;20132;-58
2022/03/19 00:38:49;;;;;;;7.50;4.40;;;8.00;99.90;;;;;;5023393;28;20144;-59
2022/03/19 00:41:16;;;;;;;7.47;4.78;;;7.90;99.90;;;;;;5022599;28;20140;-59
2022/03/19 00:43:43;;;;;;;8.15;4.63;;;7.90;99.90;;;;;;5022911;28;20093;-58
2022/03/19 00:46:11;;;;;;;8.52;4.47;;;7.90;99.90;;;;;;5021997;28;20045;-58
2022/03/19 00:48:39;;;;;;;7.95;5.20;;;7.90;99.90;;;;;;5021468;28;20796;-58
2022/03/19 00:51:06;;;;;;;11.48;5.05;;;7.90;99.90;;;;;;5020957;28;20074;-59
2022/03/19 00:53:32;;;;;;;7.13;5.07;;;7.90;99.90;;;;;;5005193;28;20104;-58
2022/03/19 00:55:59;;;;;;;8.35;4.20;;;7.80;99.90;;;;;;5020662;28;20096;-59
2022/03/19 00:58:26;;;;;;;7.82;4.05;;;7.80;99.90;;;;;;5022875;28;20395;-59
2022/03/19 01:00:53;;;;;;;8.30;4.78;;;7.80;99.90;;;;;;5021740;28;20091;-58
2022/03/19 01:03:20;;;;;;;7.95;4.22;;;7.80;99.90;;;;;;5022456;28;20076;-59
2022/03/19 01:05:47;;;;;;;10.27;4.63;;;7.80;99.90;;;;;;5021642;28;20203;-58
2022/03/19 01:08:13;;;;;;;11.30;4.43;;;7.70;99.90;;;;;;5022879;28;20220;-58
2022/03/19 01:10:40;;;;;;;8.30;4.38;;;7.70;99.90;;;;;;5021819;28;20136;-58
2022/03/19 01:13:07;;;;;;;7.47;4.60;;;7.70;99.90;;;;;;5022345;28;20406;-58
2022/03/19 01:15:34;;;;;;;8.35;4.55;;;7.70;99.90;;;;;;5022268;28;20081;-58
2022/03/19 01:18:02;;;;;;;9.75;4.85;;;7.70;99.90;;;;;;5022356;28;20560;-58
2022/03/19 01:20:29;;;;;;;10.95;4.68;;;7.70;99.90;;;;;;5019729;28;20049;-59
2022/03/19 01:22:56;;;;;;;8.45;4.72;;;7.60;99.90;;;;;;5020813;28;20131;-59
2022/03/19 01:25:23;;;;;;;8.85;4.20;;;7.60;99.90;;;;;;5021063;28;20558;-58
2022/03/19 01:27:50;;;;;;;8.55;4.82;;;7.60;99.90;;;;;;5022429;28;20440;-58
2022/03/19 01:30:18;;;;;;;7.28;4.80;;;7.60;99.90;;;;;;5022029;28;20072;-58
2022/03/19 01:32:48;;;;;;;10.80;5.03;;;7.60;99.90;;;;;;5006283;28;20145;-58
2022/03/19 01:35:16;;;;;;;12.00;5.07;;;7.60;99.90;;;;;;5020896;28;20077;-58
2022/03/19 01:37:43;;;;;;;9.48;4.68;;;7.60;99.90;;;;;;5020481;28;20045;-58
2022/03/19 01:40:10;;;;;;;9.73;4.97;;;7.60;99.90;;;;;;5020218;28;20150;-58
2022/03/19 01:42:39;;;;;;;8.95;6.10;;;7.60;99.90;;;;;;5022288;28;20439;-58
2022/03/19 01:45:09;;;;;;;8.27;4.80;;;7.60;99.90;;;;;;5004011;28;20216;-58
2022/03/19 01:47:36;;;;;;;9.43;5.30;;;7.60;99.90;;;;;;5020546;28;20103;-57
2022/03/19 01:50:03;;;;;;;9.32;5.75;;;7.60;99.90;;;;;;5020988;28;20168;-58
2022/03/19 01:52:31;;;;;;;12.35;6.80;;;7.60;99.90;;;;;;5021847;28;20472;-58
2022/03/19 01:54:58;;;;;;;11.80;6.80;;;7.60;99.90;;;;;;5020268;28;20207;-58
2022/03/19 01:57:27;;;;;;;10.10;6.20;;;7.60;99.90;;;;;;5004826;28;20382;-58
2022/03/19 01:59:55;;;;;;;9.32;5.63;;;7.60;99.90;;;;;;5022293;28;20303;-58
2022/03/19 02:02:24;;;;;;;10.90;6.43;;;7.60;99.90;;;;;;5020854;28;20176;-58
2022/03/19 02:04:51;;;;;;;9.48;6.28;;;7.60;99.90;;;;;;5018618;28;20046;-58
2022/03/19 02:07:18;;;;;;;10.80;6.22;;;7.60;99.90;;;;;;5020345;28;20115;-58
2022/03/19 02:09:44;;;;;;;9.30;6.03;;;7.60;99.90;;;;;;5021399;28;20244;-58
2022/03/19 02:12:11;;;;;;;8.93;6.07;;;7.60;99.90;;;;;;5022224;28;20431;-58
2022/03/19 02:14:39;;;;;;;9.13;6.45;;;7.60;99.90;;;;;;5021867;28;20107;-58
2022/03/19 02:17:06;;;;;;;11.75;6.65;;;7.60;99.90;;;;;;5020462;28;20077;-58
2022/03/19 02:19:33;;;;;;;10.07;6.40;;;7.60;99.90;;;;;;5019437;28;20054;-58
2022/03/19 02:22:00;;;;;;;13.15;7.32;;;7.60;99.90;;;;;;5021021;28;20042;-59
2022/03/19 02:27:12;;;;;;;8.43;6.53;;;7.60;99.90;;;;;;5013401;28;20073;-58
2022/03/19 02:29:39;;;;;;;7.93;5.85;;;7.60;99.90;;;;;;5021450;28;20172;-58
2022/03/19 02:32:06;;;;;;;8.60;6.07;;;7.60;99.90;;;;;;5019936;28;20193;-58
2022/03/19 02:34:33;;;;;;;11.85;6.05;;;7.60;99.90;;;;;;5019388;28;20056;-58
2022/03/19 02:37:00;;;;;;;9.10;5.97;;;7.60;99.90;;;;;;5023492;28;20496;-58
2022/03/19 02:39:32;;;;;;;9.88;6.55;;;7.60;99.90;;;;;;5025776;28;20049;-59
2022/03/19 02:42:00;;;;;;;9.45;6.28;;;7.50;99.90;;;;;;5026446;28;20119;-59
2022/03/19 02:44:27;;;;;;;9.43;6.45;;;7.50;99.90;;;;;;5027146;28;20053;-59
2022/03/19 02:46:55;;;;;;;11.43;7.07;;;7.50;99.90;;;;;;5027751;28;20144;-58
2022/03/19 02:49:23;;;;;;;10.80;6.63;;;7.50;99.90;;;;;;5026401;28;20077;-58
2022/03/19 02:51:53;;;;;;;13.80;7.50;;;7.50;99.90;;;;;;5026753;28;20081;-59
2022/03/19 02:54:22;;;;;;;11.57;6.88;;;7.50;99.90;;;;;;5026826;28;20507;-58
2022/03/19 02:56:49;;;;;;;11.43;6.70;;;7.60;99.90;;;;;;5027132;28;20045;-59
2022/03/19 02:59:18;;;;;;;9.82;7.65;;;7.50;99.90;;;;;;5026912;28;20093;-58
2022/03/19 03:01:45;;;;;;;10.18;6.78;;;7.50;99.90;;;;;;5027566;28;20077;-59
2022/03/19 03:04:12;;;;;;;8.85;7.32;;;7.50;99.90;;;;;;5026068;28;20060;-57
2022/03/19 03:06:40;;;;;;;12.13;8.35;;;7.50;99.90;;;;;;5025410;28;20073;-57
2022/03/19 03:09:08;;;;;;;10.73;7.25;;;7.50;99.90;;;;;;5025345;28;20081;-58
2022/03/19 03:11:36;;;;;;;9.02;6.85;;;7.50;99.90;;;;;;5026766;28;20100;-57
2022/03/19 03:14:03;;;;;;;11.13;6.63;;;7.50;99.90;;;;;;5025502;28;20081;-59
2022/03/19 03:16:30;;;;;;;11.07;7.38;;;7.40;99.90;;;;;;5026310;28;20132;-59
2022/03/19 03:19:03;;;;;;;12.93;8.43;;;7.40;99.90;;;;;;5026766;28;20057;-58
2022/03/19 03:21:30;;;;;;;13.23;8.70;;;7.40;99.90;;;;;;5023632;28;20167;-58
2022/03/19 03:23:57;;;;;;;11.18;8.35;;;7.40;99.90;;;;;;5025402;28;20145;-58
2022/03/19 03:26:23;;;;;;;11.27;8.68;;;7.40;99.90;;;;;;5025865;28;20084;-58
2022/03/19 03:28:50;;;;;;;9.35;8.20;;;7.40;99.90;;;;;;5024812;28;20091;-58
2022/03/19 03:31:17;;;;;;;11.02;8.40;;;7.40;99.90;;;;;;5026098;28;20132;-58
2022/03/19 03:33:44;;;;;;;11.93;8.15;;;7.40;99.90;;;;;;5025809;28;20092;-58
2022/03/19 03:36:11;;;;;;;9.45;8.02;;;7.40;99.90;;;;;;5022861;28;20128;-58
2022/03/19 03:38:39;;;;;;;13.27;9.07;;;7.40;99.90;;;;;;5026479;28;20520;-57
2022/03/19 03:41:06;;;;;;;10.32;9.05;;;7.40;99.90;;;;;;5025302;28;20085;-58
2022/03/19 03:43:32;;;;;;;11.82;8.15;;;7.40;99.90;;;;;;5026041;28;20049;-58
2022/03/19 03:46:00;;;;;;;10.07;7.25;;;7.30;99.90;;;;;;5024652;28;20104;-58
2022/03/19 03:48:26;;;;;;;10.38;8.65;;;7.30;99.90;;;;;;5023237;28;20133;-58
2022/03/19 03:50:55;;;;;;;12.32;9.13;;;7.30;99.90;;;;;;5022849;28;20096;-59
2022/03/19 03:53:26;;;;;;;10.60;8.15;;;7.30;99.90;;;;;;5025362;28;20092;-58
2022/03/19 03:55:53;;;;;;;12.48;8.23;;;7.30;99.90;;;;;;5024892;28;20085;-58
2022/03/19 03:58:20;;;;;;;10.82;8.27;;;7.30;99.90;;;;;;5026175;28;20084;-58
2022/03/19 04:00:46;;;;;;;9.70;8.70;;;7.30;99.90;;;;;;5024026;28;20141;-58
2022/03/19 04:03:13;;;;;;;9.55;7.55;;;7.20;99.90;;;;;;5025358;28;20089;-58
2022/03/19 04:05:40;;;;;;;10.80;8.00;;;7.20;99.90;;;;;;5023968;28;20132;-58
2022/03/19 04:08:07;;;;;;;10.27;8.38;;;7.20;99.90;;;;;;5025450;28;20085;-59
2022/03/19 04:10:34;;;;;;;12.23;9.63;;;7.20;99.90;;;;;;5025797;28;20516;-57
2022/03/19 04:13:00;;;;;;;9.23;7.78;;;7.20;99.90;;;;;;5025058;28;20132;-58
2022/03/19 04:15:27;;;;;;;11.57;8.35;;;7.20;99.90;;;;;;5025536;28;20212;-57
2022/03/19 04:17:54;;;;;;;8.80;7.82;;;7.20;99.90;;;;;;5025393;28;20085;-58
2022/03/19 04:20:24;;;;;;;9.02;7.45;;;7.20;99.90;;;;;;5022657;28;20089;-58
2022/03/19 04:22:51;;;;;;;10.45;8.07;;;7.20;99.90;;;;;;5022945;28;20155;-59
2022/03/19 04:25:19;;;;;;;10.48;9.05;;;7.20;99.90;;;;;;5024125;28;20156;-59
2022/03/19 04:27:50;;;;;;;10.95;9.82;;;7.20;99.90;;;;;;5025279;28;20136;-58
2022/03/19 04:30:18;;;;;;;9.68;8.63;;;7.20;99.90;;;;;;5023403;28;20091;-58
2022/03/19 04:33:05;;;;;;;13.27;9.95;;;7.20;99.90;;;;;;5024022;28;20089;-58
2022/03/19 04:38:18;;;;;;;13.13;9.60;;;7.20;99.90;;;;;;5025040;28;20058;-58
2022/03/19 04:40:46;;;;;;;10.98;9.25;;;7.20;99.90;;;;;;5024509;28;20137;-59
2022/03/19 04:43:12;;;;;;;9.20;7.75;;;7.20;99.90;;;;;;5023508;28;20575;-59
2022/03/19 04:45:40;;;;;;;10.75;8.77;;;7.20;99.90;;;;;;5024976;28;20077;-58
2022/03/19 04:48:07;;;;;;;12.05;10.02;;;7.20;99.90;;;;;;5024462;28;20136;-59
2022/03/19 04:50:41;;;;;;;10.70;8.77;;;7.20;99.90;;;;;;5023898;28;20076;-58
2022/03/19 04:53:07;;;;;;;10.73;8.60;;;7.20;99.90;;;;;;5024477;28;20089;-58
2022/03/19 04:55:36;;;;;;;9.65;8.40;;;7.20;99.90;;;;;;5023032;28;20758;-58
2022/03/19 04:58:03;;;;;;;11.13;8.10;;;7.10;99.90;;;;;;5023909;28;20140;-57
2022/03/19 05:00:30;;;;;;;11.25;8.52;;;7.10;99.90;;;;;;5023977;28;20141;-60
2022/03/19 05:03:02;;;;;;;9.50;8.07;;;7.10;99.90;;;;;;5023571;28;20133;-58
2022/03/19 05:05:29;;;;;;;9.73;8.50;;;7.10;99.90;;;;;;5023201;28;20103;-58
2022/03/19 05:07:56;;;;;;;11.40;8.32;;;7.10;99.90;;;;;;5022937;28;20081;-59
2022/03/19 05:13:09;;;;;;;10.20;7.30;;;7.10;99.90;;;;;;5024038;28;20081;-58
2022/03/19 05:15:36;;;;;;;9.15;8.25;;;7.10;99.90;;;;;;5024430;28;20523;-59
2022/03/19 05:18:03;;;;;;;9.52;7.15;;;7.10;99.90;;;;;;5024068;28;20045;-59
2022/03/19 05:20:33;;;;;;;9.10;6.97;;;7.00;99.90;;;;;;5022759;28;20051;-59
2022/03/19 05:23:00;;;;;;;11.18;7.32;;;7.00;99.90;;;;;;5023514;28;20464;-58
2022/03/19 05:25:27;;;;;;;8.02;6.70;;;7.00;99.90;;;;;;5023529;28;20077;-58
2022/03/19 05:27:53;;;;;;;10.98;7.70;;;7.00;99.90;;;;;;5024587;28;20617;-58
2022/03/19 05:30:20;;;;;;;10.10;6.82;;;6.90;99.90;;;;;;5024160;28;20161;-58
2022/03/19 05:32:47;;;;;;;9.73;8.13;;;6.90;99.90;;;;;;5023581;28;20093;-58
2022/03/19 05:35:15;;;;;;;9.98;7.55;;;7.00;99.90;;;;;;5022564;28;20525;-57
2022/03/19 05:37:42;;;;;;;10.23;7.45;;;7.00;99.90;;;;;;5023679;28;20057;-58
2022/03/19 05:40:10;;;;;;;10.00;8.02;;;6.90;99.90;;;;;;5023821;28;20399;-58
2022/03/19 05:42:36;;;;;;;10.15;8.95;;;6.90;99.90;;;;;;5023804;28;20114;-58
2022/03/19 05:45:04;;;;;;;9.57;7.93;;;6.90;99.90;;;;;;5024137;28;20057;-58
2022/03/19 05:47:30;;;;;;;11.05;8.43;;;6.90;99.90;;;;;;5021845;28;20461;-58
2022/03/19 05:49:57;;;;;;;9.55;8.55;;;6.90;99.90;;;;;;5011736;28;20129;-59
2022/03/19 05:52:24;;;;;;;9.23;7.75;;;6.90;99.90;;;;;;5014194;28;20121;-58
2022/03/19 05:54:51;;;;;;;8.93;7.82;;;6.90;99.90;;;;;;5018895;28;20089;-59
2022/03/19 05:57:18;;;;;;;9.25;7.93;;;6.80;99.90;;;;;;5019616;28;20129;-59
2022/03/19 05:59:45;;;;;;;8.05;6.45;;;6.80;99.90;;;;;;5012559;28;20119;-58
2022/03/19 06:02:12;;;;;;;8.55;7.60;;;6.80;99.90;;;;;;5016114;28;20107;-59
2022/03/19 06:04:39;;;;;;;11.65;8.63;;;6.80;99.90;;;;;;5003683;28;20143;-59
2022/03/19 06:07:06;;;;;;;11.07;8.80;;;6.80;99.90;;;;;;5018592;28;20073;-59
2022/03/19 06:09:33;;;;;;;12.32;8.55;;;6.80;99.90;;;;;;5017841;28;20113;-59
2022/03/19 06:11:59;;;;;;;11.45;8.48;;;6.80;99.90;;;;;;5013996;28;20527;-59
2022/03/19 06:14:26;;;;;;;8.93;7.68;;;6.80;99.90;;;;;;4999332;28;20096;-58
2022/03/19 06:16:53;;;;;;;9.30;7.50;;;6.80;99.90;;;;;;5007607;28;20380;-59
2022/03/19 06:19:20;;;;;;;10.70;8.27;;;6.80;99.90;;;;;;5007662;28;20056;-59
2022/03/19 06:21:46;;;;;;;8.77;7.70;;;6.80;99.90;;;;;;5017808;28;20107;-59
2022/03/19 06:24:16;;;;;;;11.43;8.77;;;6.80;99.90;;;;;;5000778;28;20085;-59
2022/03/19 06:26:43;;;;;;;7.75;6.93;;;6.80;99.90;;;;;;5013220;28;20147;-59
2022/03/19 06:29:10;;;;;;;9.75;8.40;;;6.80;99.90;;;;;;5006724;28;20117;-58
2022/03/19 06:31:36;;;;;;;8.60;7.80;;;6.80;99.90;;;;;;5006532;28;20081;-59
2022/03/19 06:34:03;;;;;;;9.48;7.78;;;6.80;99.90;;;;;;4998769;28;20049;-59
2022/03/19 06:39:16;;;;;;;11.73;8.27;;;6.90;99.90;;;;;;5016501;28;20501;-57
2022/03/19 06:41:42;;;;;;;11.65;7.40;;;6.90;99.90;;;;;;5005377;28;20082;-58
2022/03/19 06:44:09;;;;;;;8.80;7.15;;;6.90;99.90;;;;;;4998389;28;20173;-59
2022/03/19 06:46:36;;;;;;;7.72;6.93;;;6.90;99.90;;;;;;5017118;28;20077;-59
2022/03/19 06:49:03;;;;;;;8.93;6.30;;;6.90;99.90;;;;;;5009790;28;20052;-58
2022/03/19 06:51:29;;;;;;;9.07;6.78;;;6.90;99.90;;;;;;4996599;28;20132;-58
2022/03/19 06:53:56;;;;;;;10.10;7.35;;;7.00;99.90;;;;;;5001201;28;20541;-60
2022/03/19 06:56:23;;;;;;;12.48;7.30;;;7.00;99.90;;;;;;5011653;28;20630;-59
2022/03/19 06:58:55;;;;;;;8.90;7.55;;;7.00;99.90;;;;;;5003565;28;20100;-58
2022/03/19 07:01:22;;;;;;;9.52;6.90;;;7.10;99.90;;;;;;5010288;28;20118;-59
2022/03/19 07:03:49;;;;;;;8.65;6.70;;;7.10;99.90;;;;;;5017136;28;20536;-58
2022/03/19 07:06:16;;;;;;;7.60;6.82;;;7.10;99.90;;;;;;5014966;28;20053;-59
2022/03/19 07:09:04;;;;;;;10.65;7.28;;;7.20;99.90;;;;;;5010292;28;20323;-59
2022/03/19 07:11:31;;;;;;;8.18;7.38;;;7.20;99.90;;;;;;5009426;28;20052;-59
2022/03/19 07:13:58;;;;;;;10.05;7.95;;;7.20;99.90;;;;;;5006860;28;20057;-59
2022/03/19 07:16:25;;;;;;;8.70;7.80;;;7.30;99.90;;;;;;5014145;28;20054;-60
2022/03/19 07:18:52;;;;;;;10.68;7.80;;;7.30;99.90;;;;;;5016915;28;20675;-60
2022/03/19 07:21:18;;;;;;;9.98;7.22;;;7.30;99.90;;;;;;5014932;28;20069;-60
2022/03/19 07:23:49;;;;;;;10.35;7.13;;;7.40;99.90;;;;;;5001017;28;20525;-60
2022/03/19 07:26:16;;;;;;;9.93;7.75;;;7.40;99.90;;;;;;5012159;28;20489;-60
2022/03/19 07:28:43;;;;;;;8.10;6.88;;;7.40;99.90;;;;;;5017916;28;20209;-60
2022/03/19 07:31:09;;;;;;;9.73;7.28;;;7.50;99.90;;;;;;5020269;28;20037;-61
2022/03/19 07:33:36;;;;;;;7.38;6.47;;;7.60;99.90;;;;;;5019311;28;20073;-60
2022/03/19 07:36:04;;;;;;;8.30;6.40;;;7.60;99.90;;;;;;5019685;28;20408;-60
2022/03/19 07:38:31;;;;;;;9.32;6.57;;;7.60;99.90;;;;;;5021244;28;20056;-60
2022/03/19 07:43:43;;;;;;;7.88;6.25;;;7.70;99.90;;;;;;5016645;28;20081;-60
2022/03/19 07:46:10;;;;;;;9.63;6.28;;;7.70;99.90;;;;;;5021215;28;20464;-60
2022/03/19 07:48:37;;;;;;;7.95;6.30;;;7.80;99.90;;;;;;5014551;28;20137;-59
2022/03/19 07:51:05;;;;;;;7.20;6.40;;;7.80;99.90;;;;;;5010397;28;20077;-60
2022/03/19 07:53:32;;;;;;;7.95;6.93;;;7.90;99.90;;;;;;5016422;28;20141;-60
2022/03/19 07:55:58;;;;;;;8.48;6.25;;;7.90;99.90;;;;;;5016235;28;20076;-60
2022/03/19 07:58:25;;;;;;;12.90;7.55;;;8.00;99.90;;;;;;5009893;28;20154;-60
2022/03/19 08:00:52;;;;;;;10.25;7.63;;;8.10;99.90;;;;;;5005810;28;20049;-60
2022/03/19 08:03:19;;;;;;;10.02;7.50;;;8.10;99.90;;;;;;5009926;28;20046;-59
2022/03/19 08:05:48;;;;;;;9.50;6.65;;;8.20;99.90;;;;;;5009907;28;20420;-60
2022/03/19 08:08:15;;;;;;;8.32;6.38;;;8.20;99.90;;;;;;5017418;28;20101;-60
2022/03/19 08:10:41;;;;;;;11.27;7.43;;;8.30;99.90;;;;;;5007452;28;20568;-60
2022/03/19 08:13:09;;;;;;;12.43;7.97;;;8.30;99.90;;;;;;5020206;28;20053;-60
2022/03/19 08:15:38;;;;;;;10.43;7.88;;;8.30;99.90;;;;;;5011746;28;20050;-60
2022/03/19 08:18:06;;;;;;;7.90;6.40;;;8.40;99.90;;;;;;5000798;28;20064;-62
2022/03/19 08:20:33;;;;;;;8.35;6.70;;;8.40;99.90;;;;;;4999585;28;20108;-60
2022/03/19 08:23:00;;;;;;;7.72;6.93;;;8.50;99.90;;;;;;5016677;28;20077;-60
2022/03/19 08:25:27;;;;;;;8.20;7.35;;;8.50;99.90;;;;;;5009668;28;20076;-60
2022/03/19 08:27:54;;;;;;;9.00;7.47;;;8.60;99.90;;;;;;5006770;28;20046;-60
2022/03/19 08:30:21;;;;;;;11.25;8.30;;;8.60;99.90;;;;;;5011810;28;20631;-61
2022/03/19 08:32:47;;;;;;;9.70;8.32;;;8.60;99.90;;;;;;5014273;28;20480;-60
2022/03/19 08:35:14;;;;;;;10.48;8.60;;;8.70;99.90;;;;;;5017734;28;20078;-60
2022/03/19 08:37:45;;;;;;;12.02;8.38;;;8.70;99.90;;;;;;5012112;28;20073;-60
2022/03/19 08:40:19;;;;;;;10.98;8.35;;;8.80;99.90;;;;;;5012834;28;20145;-60
2022/03/19 08:42:52;;;;;;;10.77;7.75;;;8.90;99.90;;;;;;5007931;28;20081;-60
2022/03/19 08:45:20;;;;;;;12.00;9.20;;;8.90;99.90;;;;;;5010004;28;20783;-58
2022/03/19 08:47:47;;;;;;;10.18;8.32;;;9.00;99.90;;;;;;5019469;28;20626;-60
2022/03/19 08:50:13;;;;;;;10.52;8.90;;;9.00;99.90;;;;;;5010190;28;20132;-60
2022/03/19 08:52:41;;;;;;;13.57;9.48;;;9.00;99.90;;;;;;5015978;28;20136;-60
2022/03/19 08:55:08;;;;;;;10.75;8.43;;;9.10;99.90;;;;;;5011660;28;20132;-60
2022/03/19 08:57:35;;;;;;;10.60;8.43;;;9.10;99.90;;;;;;5019332;28;20516;-60
2022/03/19 09:00:02;;;;;;;10.63;9.35;;;9.20;99.90;;;;;;5013270;28;20069;-60
2022/03/19 09:02:42;;;;;;;10.18;8.73;;;9.20;99.90;;;;;;5015171;28;20160;-59
2022/03/19 09:05:09;;;;;;;11.23;8.68;;;9.30;99.90;;;;;;5010880;28;20469;-60
2022/03/19 09:07:36;;;;;;;11.70;9.13;;;9.30;99.90;;;;;;5013343;28;20080;-60
2022/03/19 09:10:03;;;;;;;11.18;9.20;;;9.40;99.90;;;;;;5007790;28;20049;-61
2022/03/19 09:12:33;;;;;;;9.70;8.23;;;9.40;99.90;;;;;;5016365;28;20482;-60
2022/03/19 09:15:00;;;;;;;11.35;8.02;;;9.50;99.90;;;;;;5007074;28;20146;-60
2022/03/19 09:17:27;;;;;;;11.10;8.57;;;9.60;99.90;;;;;;5011017;28;20073;-60
2022/03/19 09:19:54;;;;;;;11.98;10.20;;;9.70;99.90;;;;;;5008742;28;20137;-60
2022/03/19 09:22:20;;;;;;;14.05;9.63;;;9.70;99.90;;;;;;5012441;28;20136;-60
2022/03/19 09:24:48;;;;;;;11.88;9.13;;;9.80;99.90;;;;;;5012168;28;20528;-60
2022/03/19 09:27:15;;;;;;;11.52;9.25;;;9.80;99.90;;;;;;5006199;28;20501;-60
2022/03/19 09:29:42;;;;;;;10.15;8.95;;;9.80;99.90;;;;;;4998325;28;20326;-60
2022/03/19 09:32:12;;;;;;;11.05;8.77;;;9.90;99.90;;;;;;5012657;28;20164;-60
2022/03/19 09:34:39;;;;;;;11.57;9.43;;;10.00;99.90;;;;;;5005763;28;20062;-60
2022/03/19 09:37:06;;;;;;;12.77;9.57;;;10.00;99.90;;;;;;5013522;28;20045;-59
2022/03/19 09:39:34;;;;;;;10.07;8.80;;;10.10;99.90;;;;;;5016588;28;20377;-58
2022/03/19 09:42:02;;;;;;;10.05;8.75;;;10.10;99.90;;;;;;5012894;28;20115;-59
2022/03/19 09:44:29;;;;;;;10.88;9.65;;;10.20;99.90;;;;;;5010243;28;20046;-58
2022/03/19 09:46:56;;;;;;;14.90;11.95;;;10.30;99.90;;;;;;4999696;28;20495;-59
2022/03/19 09:49:23;;;;;;;11.25;9.90;;;10.30;99.90;;;;;;5006474;28;20081;-57
2022/03/19 09:51:53;;;;;;;13.80;10.48;;;10.30;99.90;;;;;;5013821;28;20492;-58
2022/03/19 09:54:21;;;;;;;12.38;9.55;;;10.30;99.90;;;;;;5007879;28;20072;-58
2022/03/19 09:56:48;;;;;;;13.60;10.32;;;10.40;99.90;;;;;;5012589;28;20481;-58
2022/03/19 09:59:16;;;;;;;15.25;10.30;;;10.40;99.90;;;;;;4997031;28;20439;-58
2022/03/19 10:01:44;;;;;;;13.75;9.68;;;10.50;99.90;;;;;;4995717;28;20080;-58
2022/03/19 10:04:12;;;;;;;17.30;11.27;;;10.60;99.90;;;;;;5003662;28;20048;-58
2022/03/19 10:09:46;;;;;;;13.93;10.88;;;10.60;99.90;;;;;;5009891;28;20493;-59
2022/03/19 10:12:23;;;;;;;13.65;11.50;;;10.70;99.90;;;;;;5011765;28;20586;-59
2022/03/19 10:14:53;;;;;;;13.10;10.45;;;10.70;99.90;;;;;;5006689;28;20430;-60
2022/03/19 10:17:30;;;;;;;12.32;9.63;;;10.80;99.90;;;;;;5004082;28;20053;-60
2022/03/19 10:19:59;;;;;;;11.98;9.27;;;10.90;99.90;;;;;;4998133;28;20132;-60
2022/03/19 10:22:28;;;;;;;13.02;9.60;;;11.00;99.90;;;;;;5011754;28;20088;-60
2022/03/19 10:24:56;;;;;;;13.15;10.30;;;11.10;99.90;;;;;;5011019;28;20124;-59
2022/03/19 10:27:23;;;;;;;13.50;10.88;;;11.10;99.90;;;;;;5015936;28;20176;-59
2022/03/19 10:30:16;;;;;;;13.38;9.43;;;11.20;99.90;;;;;;5006744;28;20045;-60
2022/03/19 10:32:47;;;;;;;11.68;8.68;;;11.30;99.90;;;;;;5012517;28;20365;-63
2022/03/19 10:35:28;;;;;;;11.70;9.15;;;11.30;99.90;;;;;;5002024;28;20062;-60
2022/03/19 10:37:55;;;;;;;11.35;8.90;;;11.30;99.90;;;;;;5000190;28;20261;-60
2022/03/19 10:40:24;;;;;;;13.80;9.77;;;11.40;99.90;;;;;;5016339;28;20057;-60
2022/03/19 10:42:51;;;;;;;12.73;8.57;;;11.40;99.90;;;;;;5015492;28;20124;-60
2022/03/19 10:45:22;;;;;;;11.52;9.23;;;11.40;99.90;;;;;;5016444;28;20088;-60
2022/03/19 10:47:49;;;;;;;13.27;8.77;;;11.50;99.90;;;;;;5017172;28;20165;-60
2022/03/19 10:50:20;;;;;;;10.75;9.27;;;11.50;99.90;;;;;;5007895;28;20143;-60
2022/03/19 10:52:50;;;;;;;10.05;8.93;;;11.50;99.90;;;;;;5004627;28;20088;-60
2022/03/19 10:55:18;;;;;;;11.07;9.23;;;11.60;99.90;;;;;;4999638;28;20081;-60
2022/03/19 10:57:45;;;;;;;12.65;8.77;;;11.70;99.90;;;;;;5019078;28;20081;-60
2022/03/19 11:00:12;;;;;;;10.90;8.15;;;11.70;99.90;;;;;;5022136;28;20053;-60
2022/03/19 11:02:47;;;;;;;11.00;9.15;;;11.80;99.90;;;;;;5021921;28;20121;-59
2022/03/19 11:05:18;;;;;;;11.40;10.20;;;11.70;99.90;;;;;;5019908;28;20496;-60
2022/03/19 11:07:45;;;;;;;18.52;9.85;;;11.80;99.90;;;;;;5020254;28;20260;-60
2022/03/19 11:10:12;;;;;;;13.15;9.00;;;11.90;99.90;;;;;;5020125;28;20736;-60
2022/03/19 11:12:43;;;;;;;12.68;9.95;;;11.90;99.90;;;;;;5016085;28;20229;-60
2022/03/19 11:15:10;;;;;;;14.30;10.18;;;11.90;99.90;;;;;;4992772;28;20466;-60
2022/03/19 11:17:41;;;;;;;12.45;8.98;;;12.00;99.90;;;;;;5015888;28;20104;-61
2022/03/19 11:20:09;;;;;;;14.55;8.93;;;12.10;99.90;;;;;;5012273;28;20057;-61
2022/03/19 11:22:41;;;;;;;11.82;8.25;;;12.10;99.90;;;;;;4993069;28;20077;-61
2022/03/19 11:25:26;;;;;;;10.15;8.02;;;12.20;99.90;;;;;;4999457;28;20128;-61
2022/03/19 11:28:07;;;;;;;9.50;7.72;;;12.40;99.90;;;;;;5018402;28;20429;-61
2022/03/19 11:30:41;;;;;;;10.13;8.07;;;12.60;99.90;;;;;;5001396;28;20133;-61
2022/03/19 11:33:09;;;;;;;12.10;8.60;;;13.00;99.90;;;;;;5013587;28;20506;-61
2022/03/19 11:35:38;;;;;;;9.13;7.90;;;13.10;99.90;;;;;;5019810;28;20057;-61
2022/03/19 11:38:16;;;;;;;12.45;8.63;;;13.30;99.90;;;;;;5020164;28;20539;-61
2022/03/19 11:40:47;;;;;;;12.60;9.32;;;13.50;99.90;;;;;;5018311;28;20611;-60
2022/03/19 11:43:28;;;;;;;11.57;8.50;;;13.60;99.90;;;;;;5017642;28;20081;-61
2022/03/19 11:46:02;;;;;;;13.05;9.15;;;13.80;99.90;;;;;;5008313;28;20046;-61
2022/03/19 11:48:37;;;;;;;12.73;8.65;;;13.90;99.90;;;;;;5014127;28;20060;-58
2022/03/19 11:51:13;;;;;;;10.57;8.70;;;13.90;99.90;;;;;;5013917;28;20140;-61
2022/03/19 11:54:15;;;;;;;12.98;8.70;;;14.00;99.90;;;;;;5013089;28;21193;-60
2022/03/19 11:56:41;;;;;;;13.85;9.68;;;14.10;99.90;;;;;;5002455;28;20125;-61
2022/03/19 11:59:23;;;;;;;13.38;8.38;;;14.20;99.90;;;;;;5006664;28;20129;-61
2022/03/19 12:02:02;;;;;;;11.85;8.65;;;14.30;99.90;;;;;;5018616;28;20144;-61
2022/03/19 12:04:48;;;;;;;10.13;8.02;;;14.30;99.90;;;;;;5018448;28;20054;-60
2022/03/19 12:07:43;;;;;;;12.07;8.05;;;14.50;99.90;;;;;;5011705;28;20080;-61
2022/03/19 12:10:18;;;;;;;11.98;8.02;;;14.60;99.90;;;;;;5007131;28;20129;-61
2022/03/19 12:12:45;;;;;;;10.70;6.85;;;14.60;99.90;;;;;;5015340;28;20132;-61
2022/03/19 12:15:31;;;;;;;11.27;7.13;;;14.70;99.90;;;;;;5004487;28;20136;-62
2022/03/19 12:18:27;;;;;;;8.98;6.55;;;14.80;99.90;;;;;;5019190;28;20141;-59
2022/03/19 12:20:56;;;;;;;9.55;7.60;;;15.10;99.90;;;;;;5018144;28;20136;-60
2022/03/19 12:23:22;;;;;;;8.52;5.88;;;15.20;99.90;;;;;;5016869;28;20132;-60
2022/03/19 12:25:59;;;;;;;9.77;6.85;;;15.30;99.90;;;;;;5013154;28;20108;-59
2022/03/19 12:28:26;;;;;;;10.82;6.75;;;15.40;99.90;;;;;;5020973;28;20098;-60
2022/03/19 12:30:52;;;;;;;55.00;11.18;;;15.50;99.90;;;;;;5020202;28;20433;-59
2022/03/19 12:33:38;;;;;;;17.00;7.60;;;15.70;99.90;;;;;;5016979;28;20049;-59
2022/03/19 12:36:18;;;;;;;13.52;6.78;;;15.70;99.90;;;;;;5013854;28;20053;-59
2022/03/19 12:38:45;;;;;;;8.80;5.65;;;15.80;99.90;;;;;;5017440;28;20069;-60
2022/03/19 12:41:29;;;;;;;7.80;5.47;;;15.80;99.90;;;;;;5016044;28;20137;-59
2022/03/19 12:44:29;;;;;;;7.40;5.05;;;16.10;99.90;;;;;;5028978;28;20399;-61
2022/03/19 12:47:02;;;;;;;9.52;4.78;;;16.40;99.90;;;;;;5020938;28;20084;-60
2022/03/19 12:49:29;;;;;;;6.38;4.55;;;16.50;99.90;;;;;;5019511;28;20144;-61
2022/03/19 12:51:56;;;;;;;14.45;5.13;;;16.70;99.90;;;;;;5019166;28;20049;-61
2022/03/19 12:54:30;;;;;;;5.82;4.25;;;16.70;99.90;;;;;;5028177;28;20077;-60
2022/03/19 12:57:09;;;;;;;6.85;4.80;;;16.60;99.90;;;;;;5002465;28;20046;-61
2022/03/19 12:59:36;;;;;;;6.10;4.07;;;16.50;99.90;;;;;;5009840;28;20626;-60
2022/03/19 13:02:03;;;;;;;6.97;4.70;;;16.60;99.50;;;;;;5020149;28;20508;-61
2022/03/19 13:04:31;;;;;;;4.53;4.05;;;16.60;99.40;;;;;;4996778;28;20056;-61
2022/03/19 13:06:58;;;;;;;7.55;3.53;;;16.80;99.80;;;;;;5014571;28;20046;-60
2022/03/19 13:09:32;;;;;;;6.57;3.65;;;16.70;99.90;;;;;;5011955;28;20390;-60
2022/03/19 13:12:01;;;;;;;6.45;4.10;;;16.80;99.60;;;;;;5018384;28;20046;-60
2022/03/19 13:14:28;;;;;;;6.22;4.38;;;16.80;99.80;;;;;;5014547;28;20519;-60